sensor_id;sensor_type;location;lat;lon;timestamp;pressure;altitude;pressure_sealevel;temperature;humidity
11314;BME280;5712;48.858;9.206;2023-02-22T00:02:22;98106.31;;;4.79;100.00
11314;BME280;5712;48.858;9.206;2023-02-22T00:04:53;98096.91;;;4.75;100.00
11314;BME280;5712;48.858;9.206;2023-02-22T00:07:19;98101.31;;;4.74;100.00
11314;BME280;5712;48.858;9.206;2023-02-22T00:09:49;98101.31;;;4.74;100.00
11314;BME280;5712;48.858;9.206;2023-02-22T00:12:15;98094.50;;;4.70;100.00
11314;BME280;5712;48.858;9.206;2023-02-22T00:14:42;98094.94;;;4.61;100.00
11314;BME280;5712;48.858;9.206;2023-02-22T00:17:08;98094.38;;;4.55;100.00
11314;BME280;5712;48.858;9.206;2023-02-22T00:19:37;98089.56;;;4.46;100.00
11314;BME280;5712;48.858;9.206;2023-02-22T00:22:04;98088.00;;;4.42;100.00
11314;BME280;5712;48.858;9.206;2023-02-22T00:24:31;98088.97;;;4.39;100.00
11314;BME280;5712;48.858;9.206;2023-02-22T00:29:29;98091.75;;;4.36;100.00
11314;BME280;5712;48.858;9.206;2023-02-22T00:31:55;98081.47;;;4.32;100.00
11314;BME280;5712;48.858;9.206;2023-02-22T00:34:22;98081.75;;;4.26;100.00
11314;BME280;5712;48.858;9.206;2023-02-22T00:36:49;98078.63;;;4.18;100.00
11314;BME280;5712;48.858;9.206;2023-02-22T00:39:15;98082.44;;;4.11;100.00
11314;BME280;5712;48.858;9.206;2023-02-22T00:41:43;98090.63;;;4.03;100.00
11314;BME280;5712;48.858;9.206;2023-02-22T00:44:09;98085.53;;;4.00;100.00
11314;BME280;5712;48.858;9.206;2023-02-22T00:46:37;98081.31;;;3.98;100.00
11314;BME280;5712;48.858;9.206;2023-02-22T00:49:04;98080.44;;;3.97;100.00
11314;BME280;5712;48.858;9.206;2023-02-22T00:51:30;98085.88;;;3.93;100.00
11314;BME280;5712;48.858;9.206;2023-02-22T00:53:58;98083.53;;;3.87;100.00
11314;BME280;5712;48.858;9.206;2023-02-22T00:56:24;98079.44;;;3.81;100.00
11314;BME280;5712;48.858;9.206;2023-02-22T00:58:51;98070.94;;;3.76;100.00
11314;BME280;5712;48.858;9.206;2023-02-22T01:01:17;98081.59;;;3.72;100.00
11314;BME280;5712;48.858;9.206;2023-02-22T01:03:46;98078.81;;;3.75;100.00
11314;BME280;5712;48.858;9.206;2023-02-22T01:06:12;98065.69;;;3.76;100.00
11314;BME280;5712;48.858;9.206;2023-02-22T01:08:42;98063.84;;;3.78;100.00
11314;BME280;5712;48.858;9.206;2023-02-22T01:11:09;98058.06;;;3.72;100.00
11314;BME280;5712;48.858;9.206;2023-02-22T01:13:36;98061.13;;;3.61;100.00
11314;BME280;5712;48.858;9.206;2023-02-22T01:16:03;98053.38;;;3.60;100.00
11314;BME280;5712;48.858;9.206;2023-02-22T01:18:32;98058.59;;;3.60;100.00
11314;BME280;5712;48.858;9.206;2023-02-22T01:21:01;98054.78;;;3.67;100.00
11314;BME280;5712;48.858;9.206;2023-02-22T01:23:27;98054.66;;;3.70;100.00
11314;BME280;5712;48.858;9.206;2023-02-22T01:25:55;98047.63;;;3.72;100.00
11314;BME280;5712;48.858;9.206;2023-02-22T01:28:21;98044.53;;;3.82;100.00
11314;BME280;5712;48.858;9.206;2023-02-22T01:30:48;98047.53;;;3.93;100.00
11314;BME280;5712;48.858;9.206;2023-02-22T01:33:15;98049.53;;;3.87;100.00
11314;BME280;5712;48.858;9.206;2023-02-22T01:35:42;98048.44;;;3.72;100.00
11314;BME280;5712;48.858;9.206;2023-02-22T01:38:11;98056.59;;;3.65;100.00
11314;BME280;5712;48.858;9.206;2023-02-22T01:40:41;98044.59;;;3.61;100.00
11314;BME280;5712;48.858;9.206;2023-02-22T01:43:15;98047.28;;;3.59;100.00
11314;BME280;5712;48.858;9.206;2023-02-22T01:45:51;98044.59;;;3.61;100.00
11314;BME280;5712;48.858;9.206;2023-02-22T01:48:23;98033.19;;;3.63;100.00
11314;BME280;5712;48.858;9.206;2023-02-22T01:50:55;98034.06;;;3.62;100.00
11314;BME280;5712;48.858;9.206;2023-02-22T01:53:25;98036.56;;;3.65;100.00
11314;BME280;5712;48.858;9.206;2023-02-22T01:55:54;98036.56;;;3.65;100.00
11314;BME280;5712;48.858;9.206;2023-02-22T01:58:23;98027.81;;;3.66;100.00
11314;BME280;5712;48.858;9.206;2023-02-22T02:00:51;98028.31;;;3.74;100.00
11314;BME280;5712;48.858;9.206;2023-02-22T02:03:19;98024.72;;;3.77;100.00
11314;BME280;5712;48.858;9.206;2023-02-22T02:05:49;98019.03;;;3.67;100.00
11314;BME280;5712;48.858;9.206;2023-02-22T02:08:26;98016.91;;;3.57;100.00
11314;BME280;5712;48.858;9.206;2023-02-22T02:10:55;98010.44;;;3.45;100.00
11314;BME280;5712;48.858;9.206;2023-02-22T02:13:23;98009.78;;;3.40;100.00
11314;BME280;5712;48.858;9.206;2023-02-22T02:15:52;98004.16;;;3.29;100.00
11314;BME280;5712;48.858;9.206;2023-02-22T02:18:19;98005.19;;;3.25;100.00
11314;BME280;5712;48.858;9.206;2023-02-22T02:20:58;98002.75;;;3.22;100.00
11314;BME280;5712;48.858;9.206;2023-02-22T02:23:49;98003.66;;;3.21;100.00
11314;BME280;5712;48.858;9.206;2023-02-22T02:32:44;97990.19;;;3.10;100.00
11314;BME280;5712;48.858;9.206;2023-02-22T02:35:19;97990.72;;;3.18;100.00
11314;BME280;5712;48.858;9.206;2023-02-22T02:37:52;97989.16;;;3.14;100.00
11314;BME280;5712;48.858;9.206;2023-02-22T02:40:27;97982.88;;;3.18;100.00
11314;BME280;5712;48.858;9.206;2023-02-22T02:43:00;97983.84;;;3.16;100.00
11314;BME280;5712;48.858;9.206;2023-02-22T02:45:35;97984.56;;;3.19;100.00
11314;BME280;5712;48.858;9.206;2023-02-22T02:48:08;97978.00;;;3.11;100.00
11314;BME280;5712;48.858;9.206;2023-02-22T02:50:41;97976.63;;;3.02;100.00
11314;BME280;5712;48.858;9.206;2023-02-22T02:53:10;97975.91;;;2.99;100.00
11314;BME280;5712;48.858;9.206;2023-02-22T02:55:38;97970.53;;;3.02;100.00
11314;BME280;5712;48.858;9.206;2023-02-22T02:58:06;97973.09;;;3.03;100.00
11314;BME280;5712;48.858;9.206;2023-02-22T03:00:36;97971.00;;;3.11;100.00
11314;BME280;5712;48.858;9.206;2023-02-22T03:03:15;97968.84;;;3.21;100.00
11314;BME280;5712;48.858;9.206;2023-02-22T03:06:06;97965.06;;;3.28;100.00
11314;BME280;5712;48.858;9.206;2023-02-22T03:08:40;97968.38;;;3.31;100.00
11314;BME280;5712;48.858;9.206;2023-02-22T03:11:10;97951.81;;;3.32;100.00
11314;BME280;5712;48.858;9.206;2023-02-22T03:13:47;97957.66;;;3.37;100.00
11314;BME280;5712;48.858;9.206;2023-02-22T03:16:20;97952.31;;;3.40;100.00
11314;BME280;5712;48.858;9.206;2023-02-22T03:18:53;97954.03;;;3.41;100.00
11314;BME280;5712;48.858;9.206;2023-02-22T03:21:24;97945.19;;;3.44;100.00
11314;BME280;5712;48.858;9.206;2023-02-22T03:23:59;97947.59;;;3.48;100.00
11314;BME280;5712;48.858;9.206;2023-02-22T03:26:32;97948.53;;;3.47;100.00
11314;BME280;5712;48.858;9.206;2023-02-22T03:29:01;97944.34;;;3.43;100.00
11314;BME280;5712;48.858;9.206;2023-02-22T03:31:33;97940.97;;;3.41;100.00
11314;BME280;5712;48.858;9.206;2023-02-22T03:34:07;97934.81;;;3.42;100.00
11314;BME280;5712;48.858;9.206;2023-02-22T03:36:38;97937.38;;;3.44;100.00
11314;BME280;5712;48.858;9.206;2023-02-22T03:39:09;97935.78;;;3.40;100.00
11314;BME280;5712;48.858;9.206;2023-02-22T03:41:42;97935.88;;;3.38;100.00
11314;BME280;5712;48.858;9.206;2023-02-22T03:44:15;97932.41;;;3.38;100.00
11314;BME280;5712;48.858;9.206;2023-02-22T03:46:45;97929.75;;;3.39;100.00
11314;BME280;5712;48.858;9.206;2023-02-22T03:49:19;97933.97;;;3.42;100.00
11314;BME280;5712;48.858;9.206;2023-02-22T03:51:49;97938.34;;;3.41;100.00
11314;BME280;5712;48.858;9.206;2023-02-22T03:54:16;97937.38;;;3.44;100.00
11314;BME280;5712;48.858;9.206;2023-02-22T03:56:48;97933.50;;;3.52;100.00
11314;BME280;5712;48.858;9.206;2023-02-22T03:59:15;97939.38;;;3.57;100.00
11314;BME280;5712;48.858;9.206;2023-02-22T04:01:42;97941.63;;;3.65;100.00
11314;BME280;5712;48.858;9.206;2023-02-22T04:04:08;97935.69;;;3.61;100.00
11314;BME280;5712;48.858;9.206;2023-02-22T04:06:36;97935.84;;;3.58;100.00
11314;BME280;5712;48.858;9.206;2023-02-22T04:09:03;97936.56;;;3.62;100.00
11314;BME280;5712;48.858;9.206;2023-02-22T04:11:30;97940.91;;;3.61;100.00
11314;BME280;5712;48.858;9.206;2023-02-22T04:13:57;97940.19;;;3.58;100.00
11314;BME280;5712;48.858;9.206;2023-02-22T04:16:23;97936.81;;;3.56;100.00
11314;BME280;5712;48.858;9.206;2023-02-22T04:18:50;97937.66;;;3.56;100.00
11314;BME280;5712;48.858;9.206;2023-02-22T04:21:16;97939.50;;;3.54;100.00
11314;BME280;5712;48.858;9.206;2023-02-22T04:23:44;97933.88;;;3.63;100.00
11314;BME280;5712;48.858;9.206;2023-02-22T04:26:10;97929.69;;;3.59;100.00
11314;BME280;5712;48.858;9.206;2023-02-22T04:28:37;97932.16;;;3.62;100.00
11314;BME280;5712;48.858;9.206;2023-02-22T04:31:03;97921.97;;;3.56;100.00
11314;BME280;5712;48.858;9.206;2023-02-22T04:33:30;97924.59;;;3.56;100.00
11314;BME280;5712;48.858;9.206;2023-02-22T04:35:56;97929.81;;;3.56;100.00
11314;BME280;5712;48.858;9.206;2023-02-22T04:38:24;97927.09;;;3.59;100.00
11314;BME280;5712;48.858;9.206;2023-02-22T04:40:53;97927.19;;;3.56;100.00
11314;BME280;5712;48.858;9.206;2023-02-22T04:43:19;97927.84;;;3.61;100.00
11314;BME280;5712;48.858;9.206;2023-02-22T04:45:46;97926.53;;;3.71;100.00
11314;BME280;5712;48.858;9.206;2023-02-22T04:48:13;97920.44;;;3.71;100.00
11314;BME280;5712;48.858;9.206;2023-02-22T04:50:39;97924.50;;;3.78;100.00
11314;BME280;5712;48.858;9.206;2023-02-22T04:53:06;97917.50;;;3.78;100.00
11314;BME280;5712;48.858;9.206;2023-02-22T04:55:32;97914.03;;;3.78;100.00
11314;BME280;5712;48.858;9.206;2023-02-22T04:58:00;97912.97;;;3.82;100.00
11314;BME280;5712;48.858;9.206;2023-02-22T05:00:27;97915.91;;;3.74;100.00
11314;BME280;5712;48.858;9.206;2023-02-22T05:02:53;97914.38;;;3.70;100.00
11314;BME280;5712;48.858;9.206;2023-02-22T05:05:20;97912.00;;;3.66;100.00
11314;BME280;5712;48.858;9.206;2023-02-22T05:07:47;97909.28;;;3.67;100.00
11314;BME280;5712;48.858;9.206;2023-02-22T05:10:14;97909.44;;;3.64;100.00
11314;BME280;5712;48.858;9.206;2023-02-22T05:12:41;97916.75;;;3.56;100.00
11314;BME280;5712;48.858;9.206;2023-02-22T05:15:10;97912.59;;;3.52;100.00
11314;BME280;5712;48.858;9.206;2023-02-22T05:17:40;97905.03;;;3.46;100.00
11314;BME280;5712;48.858;9.206;2023-02-22T05:20:09;97911.88;;;3.49;100.00
11314;BME280;5712;48.858;9.206;2023-02-22T05:22:41;97903.34;;;3.45;100.00
11314;BME280;5712;48.858;9.206;2023-02-22T05:25:07;97902.44;;;3.46;100.00
11314;BME280;5712;48.858;9.206;2023-02-22T05:27:35;97911.84;;;3.50;100.00
11314;BME280;5712;48.858;9.206;2023-02-22T05:30:02;97906.19;;;3.59;100.00
11314;BME280;5712;48.858;9.206;2023-02-22T05:32:30;97898.06;;;3.65;100.00
11314;BME280;5712;48.858;9.206;2023-02-22T05:34:57;97892.19;;;3.60;100.00
11314;BME280;5712;48.858;9.206;2023-02-22T05:37:23;97894.88;;;3.59;100.00
11314;BME280;5712;48.858;9.206;2023-02-22T05:39:50;97888.94;;;3.55;100.00
11314;BME280;5712;48.858;9.206;2023-02-22T05:42:16;97893.19;;;3.58;100.00
11314;BME280;5712;48.858;9.206;2023-02-22T05:44:43;97892.19;;;3.60;100.00
11314;BME280;5712;48.858;9.206;2023-02-22T05:47:10;97888.81;;;3.58;100.00
11314;BME280;5712;48.858;9.206;2023-02-22T05:49:38;97888.88;;;3.57;100.00
11314;BME280;5712;48.858;9.206;2023-02-22T05:52:04;97891.91;;;3.66;100.00
11314;BME280;5712;48.858;9.206;2023-02-22T05:54:31;97893.47;;;3.70;100.00
11314;BME280;5712;48.858;9.206;2023-02-22T05:56:57;97888.38;;;3.67;100.00
11314;BME280;5712;48.858;9.206;2023-02-22T05:59:24;97890.34;;;3.62;100.00
11314;BME280;5712;48.858;9.206;2023-02-22T06:01:50;97886.03;;;3.61;100.00
11314;BME280;5712;48.858;9.206;2023-02-22T06:04:17;97885.28;;;3.59;100.00
11314;BME280;5712;48.858;9.206;2023-02-22T06:06:45;97886.13;;;3.60;100.00
11314;BME280;5712;48.858;9.206;2023-02-22T06:09:12;97889.78;;;3.56;100.00
11314;BME280;5712;48.858;9.206;2023-02-22T06:11:38;97885.28;;;3.59;100.00
11314;BME280;5712;48.858;9.206;2023-02-22T06:14:05;97885.91;;;3.64;100.00
11314;BME280;5712;48.858;9.206;2023-02-22T06:16:32;97882.31;;;3.67;100.00
11314;BME280;5712;48.858;9.206;2023-02-22T06:18:58;97886.41;;;3.72;100.00
11314;BME280;5712;48.858;9.206;2023-02-22T06:21:26;97889.19;;;3.69;100.00
11314;BME280;5712;48.858;9.206;2023-02-22T06:23:55;97893.88;;;3.61;100.00
11314;BME280;5712;48.858;9.206;2023-02-22T06:26:21;97888.81;;;3.58;100.00
11314;BME280;5712;48.858;9.206;2023-02-22T06:28:48;97896.00;;;3.53;100.00
11314;BME280;5712;48.858;9.206;2023-02-22T06:31:14;97900.53;;;3.50;100.00
11314;BME280;5712;48.858;9.206;2023-02-22T06:33:41;97901.22;;;3.53;100.00
11314;BME280;5712;48.858;9.206;2023-02-22T06:36:08;97910.22;;;3.66;100.00
11314;BME280;5712;48.858;9.206;2023-02-22T06:38:35;97913.69;;;3.67;100.00
11314;BME280;5712;48.858;9.206;2023-02-22T06:41:03;97911.56;;;3.75;100.00
11314;BME280;5712;48.858;9.206;2023-02-22T06:43:30;97917.50;;;3.78;100.00
11314;BME280;5712;48.858;9.206;2023-02-22T06:45:56;97916.38;;;3.84;100.00
11314;BME280;5712;48.858;9.206;2023-02-22T06:48:23;97911.41;;;3.96;100.00
11314;BME280;5712;48.858;9.206;2023-02-22T06:50:49;97924.97;;;4.04;100.00
11314;BME280;5712;48.858;9.206;2023-02-22T06:53:16;97913.00;;;4.17;100.00
11314;BME280;5712;48.858;9.206;2023-02-22T06:55:42;97914.56;;;4.21;100.00
11314;BME280;5712;48.858;9.206;2023-02-22T06:58:10;97913.28;;;4.30;100.00
11314;BME280;5712;48.858;9.206;2023-02-22T07:00:37;97912.34;;;4.31;100.00
11314;BME280;5712;48.858;9.206;2023-02-22T07:03:03;97921.84;;;4.33;100.00
11314;BME280;5712;48.858;9.206;2023-02-22T07:05:30;97918.28;;;4.34;100.00
11314;BME280;5712;48.858;9.206;2023-02-22T07:08:02;97917.88;;;4.43;100.00
11314;BME280;5712;48.858;9.206;2023-02-22T07:10:30;97920.81;;;4.54;100.00
11314;BME280;5712;48.858;9.206;2023-02-22T07:12:58;97918.78;;;4.59;100.00
11314;BME280;5712;48.858;9.206;2023-02-22T07:15:27;97916.81;;;4.64;100.00
11314;BME280;5712;48.858;9.206;2023-02-22T07:17:54;97914.81;;;4.69;100.00
11314;BME280;5712;48.858;9.206;2023-02-22T07:20:26;97915.56;;;4.71;100.00
11314;BME280;5712;48.858;9.206;2023-02-22T07:22:52;97915.91;;;4.82;100.00
11314;BME280;5712;48.858;9.206;2023-02-22T07:25:20;97919.13;;;4.87;100.00
11314;BME280;5712;48.858;9.206;2023-02-22T07:27:48;97918.84;;;4.93;100.00
11314;BME280;5712;48.858;9.206;2023-02-22T07:30:18;97914.16;;;5.00;100.00
11314;BME280;5712;48.858;9.206;2023-02-22T07:32:46;97916.47;;;5.06;100.00
11314;BME280;5712;48.858;9.206;2023-02-22T07:35:14;97924.00;;;5.12;100.00
11314;BME280;5712;48.858;9.206;2023-02-22T07:37:41;97924.53;;;5.18;100.00
11314;BME280;5712;48.858;9.206;2023-02-22T07:40:08;97923.91;;;5.13;100.00
11314;BME280;5712;48.858;9.206;2023-02-22T07:42:49;97923.91;;;5.13;100.00
11314;BME280;5712;48.858;9.206;2023-02-22T07:45:16;97925.69;;;5.13;100.00
11314;BME280;5712;48.858;9.206;2023-02-22T07:47:46;97922.75;;;5.19;100.00
11314;BME280;5712;48.858;9.206;2023-02-22T07:50:13;97933.00;;;5.23;100.00
11314;BME280;5712;48.858;9.206;2023-02-22T07:52:39;97928.59;;;5.24;100.00
11314;BME280;5712;48.858;9.206;2023-02-22T07:55:06;97925.91;;;5.25;100.00
11314;BME280;5712;48.858;9.206;2023-02-22T07:57:33;97924.22;;;5.24;100.00
11314;BME280;5712;48.858;9.206;2023-02-22T07:59:59;97932.81;;;5.26;100.00
11314;BME280;5712;48.858;9.206;2023-02-22T08:02:26;97931.75;;;5.30;100.00
11314;BME280;5712;48.858;9.206;2023-02-22T08:04:53;97932.28;;;5.37;100.00
11314;BME280;5712;48.858;9.206;2023-02-22T08:07:20;97923.56;;;5.36;100.00
11314;BME280;5712;48.858;9.206;2023-02-22T08:09:46;97923.94;;;5.46;100.00
11314;BME280;5712;48.858;9.206;2023-02-22T08:12:13;97926.31;;;5.50;100.00
11314;BME280;5712;48.858;9.206;2023-02-22T08:14:40;97931.56;;;5.50;100.00
11314;BME280;5712;48.858;9.206;2023-02-22T08:17:07;97922.38;;;5.59;100.00
11314;BME280;5712;48.858;9.206;2023-02-22T08:19:33;97921.13;;;5.66;100.00
11314;BME280;5712;48.858;9.206;2023-02-22T08:22:01;97920.97;;;5.69;100.00
11314;BME280;5712;48.858;9.206;2023-02-22T08:24:28;97921.47;;;5.75;100.00
11314;BME280;5712;48.858;9.206;2023-02-22T08:26:54;97916.88;;;5.80;100.00
11314;BME280;5712;48.858;9.206;2023-02-22T08:29:20;97916.47;;;5.88;100.00
11314;BME280;5712;48.858;9.206;2023-02-22T08:31:49;97916.81;;;5.97;100.00
11314;BME280;5712;48.858;9.206;2023-02-22T08:34:18;97912.91;;;6.04;100.00
11314;BME280;5712;48.858;9.206;2023-02-22T08:36:44;97901.94;;;6.13;100.00
11314;BME280;5712;48.858;9.206;2023-02-22T08:39:12;97908.19;;;6.26;100.00
11314;BME280;5712;48.858;9.206;2023-02-22T08:41:38;97912.91;;;6.35;100.00
11314;BME280;5712;48.858;9.206;2023-02-22T08:44:05;97916.72;;;6.45;100.00
11314;BME280;5712;48.858;9.206;2023-02-22T08:46:31;97916.78;;;6.59;100.00
11314;BME280;5712;48.858;9.206;2023-02-22T08:48:58;97914.56;;;6.83;100.00
11314;BME280;5712;48.858;9.206;2023-02-22T08:51:25;97914.31;;;7.01;100.00
11314;BME280;5712;48.858;9.206;2023-02-22T08:53:52;97924.09;;;7.13;99.20
11314;BME280;5712;48.858;9.206;2023-02-22T08:56:20;97918.72;;;7.30;98.66
11314;BME280;5712;48.858;9.206;2023-02-22T08:58:47;97914.56;;;7.40;98.87
11314;BME280;5712;48.858;9.206;2023-02-22T09:01:13;97914.78;;;7.51;98.43
11314;BME280;5712;48.858;9.206;2023-02-22T09:03:40;97911.81;;;7.71;97.72
11314;BME280;5712;48.858;9.206;2023-02-22T09:06:06;97904.56;;;7.88;95.54
11314;BME280;5712;48.858;9.206;2023-02-22T09:08:33;97897.03;;;8.10;92.39
11314;BME280;5712;48.858;9.206;2023-02-22T09:10:59;97896.28;;;8.22;90.89
11314;BME280;5712;48.858;9.206;2023-02-22T09:13:27;97896.78;;;8.41;88.92
11314;BME280;5712;48.858;9.206;2023-02-22T09:15:54;97887.25;;;8.53;87.50
11314;BME280;5712;48.858;9.206;2023-02-22T09:18:20;97886.66;;;8.62;86.45
11314;BME280;5712;48.858;9.206;2023-02-22T09:20:47;97881.56;;;8.59;86.13
11314;BME280;5712;48.858;9.206;2023-02-22T09:23:13;97892.13;;;8.59;86.13
11314;BME280;5712;48.858;9.206;2023-02-22T09:25:40;97888.53;;;8.60;86.85
11314;BME280;5712;48.858;9.206;2023-02-22T09:28:06;97884.69;;;8.51;88.18
11314;BME280;5712;48.858;9.206;2023-02-22T09:30:35;97889.63;;;8.70;87.37
11314;BME280;5712;48.858;9.206;2023-02-22T09:33:04;97883.09;;;8.75;86.30
11314;BME280;5712;48.858;9.206;2023-02-22T09:35:34;97889.56;;;8.84;86.33
11314;BME280;5712;48.858;9.206;2023-02-22T09:38:03;97882.94;;;8.91;85.43
11314;BME280;5712;48.858;9.206;2023-02-22T09:40:33;97871.97;;;8.97;84.79
11314;BME280;5712;48.858;9.206;2023-02-22T09:43:12;97880.53;;;9.00;84.29
11314;BME280;5712;48.858;9.206;2023-02-22T09:45:53;97877.47;;;9.06;84.14
11314;BME280;5712;48.858;9.206;2023-02-22T09:48:23;97870.75;;;9.15;84.22
11314;BME280;5712;48.858;9.206;2023-02-22T09:50:52;97861.50;;;9.34;82.73
11314;BME280;5712;48.858;9.206;2023-02-22T09:53:23;97864.44;;;9.55;83.03
11314;BME280;5712;48.858;9.206;2023-02-22T09:55:55;97860.19;;;9.77;81.19
11314;BME280;5712;48.858;9.206;2023-02-22T09:58:24;97858.47;;;9.89;80.68
11314;BME280;5712;48.858;9.206;2023-02-22T10:00:56;97853.41;;;10.11;79.43
11314;BME280;5712;48.858;9.206;2023-02-22T10:03:28;97843.44;;;10.27;78.43
11314;BME280;5712;48.858;9.206;2023-02-22T10:06:00;97858.78;;;10.45;79.37
11314;BME280;5712;48.858;9.206;2023-02-22T10:08:29;97846.00;;;10.63;78.06
11314;BME280;5712;48.858;9.206;2023-02-22T10:11:02;97847.03;;;10.73;78.34
11314;BME280;5712;48.858;9.206;2023-02-22T10:13:37;97861.16;;;10.95;79.44
11314;BME280;5712;48.858;9.206;2023-02-22T10:16:15;97850.06;;;11.14;78.75
11314;BME280;5712;48.858;9.206;2023-02-22T10:19:06;97854.19;;;11.40;78.40
11314;BME280;5712;48.858;9.206;2023-02-22T10:21:55;97838.09;;;11.43;76.29
11314;BME280;5712;48.858;9.206;2023-02-22T10:24:36;97843.38;;;11.43;76.70
11314;BME280;5712;48.858;9.206;2023-02-22T10:27:07;97846.50;;;11.48;76.03
11314;BME280;5712;48.858;9.206;2023-02-22T10:29:40;97838.81;;;11.56;75.70
11314;BME280;5712;48.858;9.206;2023-02-22T10:32:14;97849.88;;;11.50;76.28
11314;BME280;5712;48.858;9.206;2023-02-22T10:34:45;97841.59;;;11.54;76.46
11314;BME280;5712;48.858;9.206;2023-02-22T10:37:20;97834.47;;;11.44;76.42
11314;BME280;5712;48.858;9.206;2023-02-22T10:39:50;97838.31;;;11.40;77.44
11314;BME280;5712;48.858;9.206;2023-02-22T10:42:21;97837.09;;;11.33;77.26
11314;BME280;5712;48.858;9.206;2023-02-22T10:44:50;97832.31;;;11.38;76.21
11314;BME280;5712;48.858;9.206;2023-02-22T10:47:19;97831.56;;;11.36;75.84
11314;BME280;5712;48.858;9.206;2023-02-22T10:49:48;97837.31;;;11.30;76.17
11314;BME280;5712;48.858;9.206;2023-02-22T10:52:18;97843.84;;;11.26;76.92
11314;BME280;5712;48.858;9.206;2023-02-22T10:54:49;97835.44;;;11.32;77.32
11314;BME280;5712;48.858;9.206;2023-02-22T10:57:20;97829.66;;;11.38;77.01
11314;BME280;5712;48.858;9.206;2023-02-22T10:59:48;97837.88;;;11.57;76.97
11314;BME280;5712;48.858;9.206;2023-02-22T11:02:19;97829.00;;;11.69;77.09
11314;BME280;5712;48.858;9.206;2023-02-22T11:04:49;97810.69;;;11.77;74.18
11314;BME280;5712;48.858;9.206;2023-02-22T11:07:19;97814.19;;;11.88;73.25
11314;BME280;5712;48.858;9.206;2023-02-22T11:09:49;97802.75;;;11.88;72.11
11314;BME280;5712;48.858;9.206;2023-02-22T11:12:20;97805.88;;;11.93;72.74
11314;BME280;5712;48.858;9.206;2023-02-22T11:14:52;97809.34;;;12.04;73.07
11314;BME280;5712;48.858;9.206;2023-02-22T11:17:28;97800.78;;;12.12;72.27
11314;BME280;5712;48.858;9.206;2023-02-22T11:19:56;97797.75;;;12.16;71.67
11314;BME280;5712;48.858;9.206;2023-02-22T11:22:25;97792.31;;;12.29;71.33
11314;BME280;5712;48.858;9.206;2023-02-22T11:24:57;97796.38;;;12.44;70.47
11314;BME280;5712;48.858;9.206;2023-02-22T11:27:28;97787.91;;;12.50;69.88
11314;BME280;5712;48.858;9.206;2023-02-22T11:32:51;97779.38;;;12.46;68.13
11314;BME280;5712;48.858;9.206;2023-02-22T11:35:30;97762.56;;;12.57;66.14
11314;BME280;5712;48.858;9.206;2023-02-22T11:38:14;97744.44;;;12.73;64.57
11314;BME280;5712;48.858;9.206;2023-02-22T11:40:41;97746.88;;;12.65;64.32
11314;BME280;5712;48.858;9.206;2023-02-22T11:43:12;97748.19;;;12.91;63.56
11314;BME280;5712;48.858;9.206;2023-02-22T11:45:55;97736.81;;;13.00;62.84
11314;BME280;5712;48.858;9.206;2023-02-22T11:48:27;97738.25;;;13.04;62.68
11314;BME280;5712;48.858;9.206;2023-02-22T11:51:05;97735.28;;;13.27;62.34
11314;BME280;5712;48.858;9.206;2023-02-22T11:53:46;97734.75;;;13.33;62.14
11314;BME280;5712;48.858;9.206;2023-02-22T11:56:21;97724.03;;;13.35;61.15
11314;BME280;5712;48.858;9.206;2023-02-22T11:58:57;97718.28;;;13.30;60.93
11314;BME280;5712;48.858;9.206;2023-02-22T12:01:34;97720.44;;;13.15;61.31
11314;BME280;5712;48.858;9.206;2023-02-22T12:04:26;97720.75;;;13.22;61.73
11314;BME280;5712;48.858;9.206;2023-02-22T12:07:10;97720.81;;;13.31;61.76
11314;BME280;5712;48.858;9.206;2023-02-22T12:09:43;97711.06;;;13.41;61.46
11314;BME280;5712;48.858;9.206;2023-02-22T12:12:19;97711.91;;;13.42;61.44
11314;BME280;5712;48.858;9.206;2023-02-22T12:14:52;97705.44;;;13.35;60.74
11314;BME280;5712;48.858;9.206;2023-02-22T12:17:28;97698.47;;;13.34;60.26
11314;BME280;5712;48.858;9.206;2023-02-22T12:20:04;97699.69;;;13.30;60.52
11314;BME280;5712;48.858;9.206;2023-02-22T12:22:35;97693.94;;;13.25;59.90
11314;BME280;5712;48.858;9.206;2023-02-22T12:25:09;97677.47;;;13.31;59.31
11314;BME280;5712;48.858;9.206;2023-02-22T12:27:46;97691.44;;;13.23;59.95
11314;BME280;5712;48.858;9.206;2023-02-22T12:30:17;97689.44;;;13.16;60.32
11314;BME280;5712;48.858;9.206;2023-02-22T12:32:50;97694.66;;;12.97;60.98
11314;BME280;5712;48.858;9.206;2023-02-22T12:35:22;97693.91;;;12.95;61.29
11314;BME280;5712;48.858;9.206;2023-02-22T12:37:54;97697.66;;;12.92;61.50
11314;BME280;5712;48.858;9.206;2023-02-22T12:40:29;97692.03;;;13.06;60.73
11314;BME280;5712;48.858;9.206;2023-02-22T12:43:01;97698.94;;;13.18;60.70
11314;BME280;5712;48.858;9.206;2023-02-22T12:45:34;97695.19;;;13.21;60.53
11314;BME280;5712;48.858;9.206;2023-02-22T12:48:24;97687.00;;;13.33;60.34
11314;BME280;5712;48.858;9.206;2023-02-22T12:50:55;97685.34;;;13.42;59.81
11314;BME280;5712;48.858;9.206;2023-02-22T12:53:27;97683.75;;;13.60;60.95
11314;BME280;5712;48.858;9.206;2023-02-22T12:55:59;97678.88;;;13.65;59.78
11314;BME280;5712;48.858;9.206;2023-02-22T12:58:31;97696.69;;;13.83;60.45
11314;BME280;5712;48.858;9.206;2023-02-22T13:01:00;97677.56;;;13.99;59.22
11314;BME280;5712;48.858;9.206;2023-02-22T13:03:34;97677.69;;;13.97;59.05
11314;BME280;5712;48.858;9.206;2023-02-22T13:06:16;97684.25;;;14.03;59.96
11314;BME280;5712;48.858;9.206;2023-02-22T13:08:56;97689.72;;;14.11;60.70
11314;BME280;5712;48.858;9.206;2023-02-22T13:11:33;97685.09;;;14.13;59.94
11314;BME280;5712;48.858;9.206;2023-02-22T13:14:13;97687.38;;;14.27;59.66
11314;BME280;5712;48.858;9.206;2023-02-22T13:16:48;97666.28;;;14.35;57.77
11314;BME280;5712;48.858;9.206;2023-02-22T13:19:28;97662.63;;;14.45;57.46
11314;BME280;5712;48.858;9.206;2023-02-22T13:22:00;97667.09;;;14.45;57.29
11314;BME280;5712;48.858;9.206;2023-02-22T13:24:35;97668.75;;;14.46;57.67
11314;BME280;5712;48.858;9.206;2023-02-22T13:27:10;97663.75;;;14.33;57.11
11314;BME280;5712;48.858;9.206;2023-02-22T13:29:41;97657.59;;;14.23;57.15
11314;BME280;5712;48.858;9.206;2023-02-22T13:32:28;97651.84;;;14.28;56.62
11314;BME280;5712;48.858;9.206;2023-02-22T13:41:16;97642.16;;;14.08;56.26
11314;BME280;5712;48.858;9.206;2023-02-22T13:47:15;97638.81;;;14.15;56.40
11314;BME280;5712;48.858;9.206;2023-02-22T13:49:53;97648.59;;;14.15;56.80